sensor_id;sensor_type;location;lat;lon;timestamp;temperature;humidity
35894;DHT22;21994;48.204;16.516;2024-02-23T00:00:54;9.40;99.90
35894;DHT22;21994;48.204;16.516;2024-02-23T00:03:19;9.20;99.90
35894;DHT22;21994;48.204;16.516;2024-02-23T00:05:45;9.10;99.90
35894;DHT22;21994;48.204;16.516;2024-02-23T00:08:11;9.10;99.90
35894;DHT22;21994;48.204;16.516;2024-02-23T00:10:38;9.00;99.90
35894;DHT22;21994;48.204;16.516;2024-02-23T00:13:04;9.00;99.90
35894;DHT22;21994;48.204;16.516;2024-02-23T00:15:29;8.90;99.90
35894;DHT22;21994;48.204;16.516;2024-02-23T00:17:55;8.90;99.90
35894;DHT22;21994;48.204;16.516;2024-02-23T00:20:21;8.80;99.90
35894;DHT22;21994;48.204;16.516;2024-02-23T00:22:48;8.80;99.90
35894;DHT22;21994;48.204;16.516;2024-02-23T00:25:13;8.80;99.90
35894;DHT22;21994;48.204;16.516;2024-02-23T00:27:39;8.70;99.90
35894;DHT22;21994;48.204;16.516;2024-02-23T00:30:07;8.60;99.90
35894;DHT22;21994;48.204;16.516;2024-02-23T00:32:33;8.60;99.90
35894;DHT22;21994;48.204;16.516;2024-02-23T00:34:59;8.60;99.90
35894;DHT22;21994;48.204;16.516;2024-02-23T00:37:25;8.70;99.90
35894;DHT22;21994;48.204;16.516;2024-02-23T00:39:51;8.50;99.90
35894;DHT22;21994;48.204;16.516;2024-02-23T00:42:17;8.50;99.90
35894;DHT22;21994;48.204;16.516;2024-02-23T00:44:42;8.50;99.90
35894;DHT22;21994;48.204;16.516;2024-02-23T00:47:08;8.50;99.90
35894;DHT22;21994;48.204;16.516;2024-02-23T00:49:35;8.50;99.90
35894;DHT22;21994;48.204;16.516;2024-02-23T00:52:00;8.50;99.90
35894;DHT22;21994;48.204;16.516;2024-02-23T00:54:26;8.70;99.90
35894;DHT22;21994;48.204;16.516;2024-02-23T00:56:52;8.60;99.90
35894;DHT22;21994;48.204;16.516;2024-02-23T00:59:18;8.50;99.90
35894;DHT22;21994;48.204;16.516;2024-02-23T01:01:44;8.50;99.90
35894;DHT22;21994;48.204;16.516;2024-02-23T01:04:10;8.40;99.90
35894;DHT22;21994;48.204;16.516;2024-02-23T01:06:35;8.40;99.90
35894;DHT22;21994;48.204;16.516;2024-02-23T01:09:01;8.40;99.90
35894;DHT22;21994;48.204;16.516;2024-02-23T01:11:29;8.50;99.90
35894;DHT22;21994;48.204;16.516;2024-02-23T01:13:55;8.50;99.90
35894;DHT22;21994;48.204;16.516;2024-02-23T01:16:22;8.50;99.90
35894;DHT22;21994;48.204;16.516;2024-02-23T01:18:48;8.50;99.90
35894;DHT22;21994;48.204;16.516;2024-02-23T01:21:13;8.40;99.90
35894;DHT22;21994;48.204;16.516;2024-02-23T01:23:39;8.40;99.90
35894;DHT22;21994;48.204;16.516;2024-02-23T01:26:05;8.40;99.90
35894;DHT22;21994;48.204;16.516;2024-02-23T01:28:31;8.40;99.90
35894;DHT22;21994;48.204;16.516;2024-02-23T01:30:57;8.40;99.90
35894;DHT22;21994;48.204;16.516;2024-02-23T01:33:23;8.30;99.90
35894;DHT22;21994;48.204;16.516;2024-02-23T01:35:48;8.30;99.90
35894;DHT22;21994;48.204;16.516;2024-02-23T01:38:14;8.30;99.90
35894;DHT22;21994;48.204;16.516;2024-02-23T01:40:46;8.20;99.90
35894;DHT22;21994;48.204;16.516;2024-02-23T01:43:15;8.20;99.90
35894;DHT22;21994;48.204;16.516;2024-02-23T01:45:41;8.30;99.90
35894;DHT22;21994;48.204;16.516;2024-02-23T01:48:07;8.20;99.90
35894;DHT22;21994;48.204;16.516;2024-02-23T01:50:33;8.10;99.90
35894;DHT22;21994;48.204;16.516;2024-02-23T01:53:01;8.10;99.90
35894;DHT22;21994;48.204;16.516;2024-02-23T01:55:28;8.20;99.90
35894;DHT22;21994;48.204;16.516;2024-02-23T01:57:56;8.10;99.90
35894;DHT22;21994;48.204;16.516;2024-02-23T02:00:22;8.30;99.90
35894;DHT22;21994;48.204;16.516;2024-02-23T02:02:48;8.30;99.90
35894;DHT22;21994;48.204;16.516;2024-02-23T02:05:14;8.20;99.90
35894;DHT22;21994;48.204;16.516;2024-02-23T02:07:43;8.30;99.90
35894;DHT22;21994;48.204;16.516;2024-02-23T02:10:10;8.20;99.90
35894;DHT22;21994;48.204;16.516;2024-02-23T02:12:37;8.20;99.90
35894;DHT22;21994;48.204;16.516;2024-02-23T02:15:03;8.20;99.90
35894;DHT22;21994;48.204;16.516;2024-02-23T02:17:30;8.20;99.90
35894;DHT22;21994;48.204;16.516;2024-02-23T02:19:58;8.10;99.90
35894;DHT22;21994;48.204;16.516;2024-02-23T02:22:24;8.20;99.90
35894;DHT22;21994;48.204;16.516;2024-02-23T02:24:50;8.10;99.90
35894;DHT22;21994;48.204;16.516;2024-02-23T02:27:16;8.10;99.90
35894;DHT22;21994;48.204;16.516;2024-02-23T02:29:42;8.10;99.90
35894;DHT22;21994;48.204;16.516;2024-02-23T02:32:07;8.00;99.90
35894;DHT22;21994;48.204;16.516;2024-02-23T02:34:34;8.00;99.90
35894;DHT22;21994;48.204;16.516;2024-02-23T02:37:00;8.00;99.90
35894;DHT22;21994;48.204;16.516;2024-02-23T02:39:27;8.00;99.90
35894;DHT22;21994;48.204;16.516;2024-02-23T02:41:53;8.00;99.90
35894;DHT22;21994;48.204;16.516;2024-02-23T02:44:19;8.00;99.90
35894;DHT22;21994;48.204;16.516;2024-02-23T02:46:45;8.00;99.90
35894;DHT22;21994;48.204;16.516;2024-02-23T02:49:11;8.00;99.90
35894;DHT22;21994;48.204;16.516;2024-02-23T02:51:37;8.00;99.90
35894;DHT22;21994;48.204;16.516;2024-02-23T02:54:04;8.00;99.90
35894;DHT22;21994;48.204;16.516;2024-02-23T02:56:30;8.00;99.90
35894;DHT22;21994;48.204;16.516;2024-02-23T02:58:56;8.00;99.90
35894;DHT22;21994;48.204;16.516;2024-02-23T03:01:22;8.00;99.90
35894;DHT22;21994;48.204;16.516;2024-02-23T03:03:47;8.00;99.90
35894;DHT22;21994;48.204;16.516;2024-02-23T03:06:13;8.00;99.90
35894;DHT22;21994;48.204;16.516;2024-02-23T03:08:42;8.00;99.90
35894;DHT22;21994;48.204;16.516;2024-02-23T03:11:09;8.00;99.90
35894;DHT22;21994;48.204;16.516;2024-02-23T03:13:35;7.90;99.90
35894;DHT22;21994;48.204;16.516;2024-02-23T03:16:03;7.90;99.90
35894;DHT22;21994;48.204;16.516;2024-02-23T03:18:29;8.10;99.90
35894;DHT22;21994;48.204;16.516;2024-02-23T03:20:55;8.30;99.90
35894;DHT22;21994;48.204;16.516;2024-02-23T03:23:20;8.30;99.90
35894;DHT22;21994;48.204;16.516;2024-02-23T03:25:46;8.40;99.90
35894;DHT22;21994;48.204;16.516;2024-02-23T03:28:12;8.40;99.90
35894;DHT22;21994;48.204;16.516;2024-02-23T03:30:38;8.40;99.90
35894;DHT22;21994;48.204;16.516;2024-02-23T03:33:04;8.30;99.90
35894;DHT22;21994;48.204;16.516;2024-02-23T03:35:30;8.30;99.90
35894;DHT22;21994;48.204;16.516;2024-02-23T03:37:56;8.20;99.90
35894;DHT22;21994;48.204;16.516;2024-02-23T03:40:21;8.20;99.90
35894;DHT22;21994;48.204;16.516;2024-02-23T03:42:47;8.10;99.90
35894;DHT22;21994;48.204;16.516;2024-02-23T03:45:13;8.00;99.90
35894;DHT22;21994;48.204;16.516;2024-02-23T03:47:39;8.00;99.90
35894;DHT22;21994;48.204;16.516;2024-02-23T03:50:06;8.00;99.90
35894;DHT22;21994;48.204;16.516;2024-02-23T03:52:33;8.00;99.90
35894;DHT22;21994;48.204;16.516;2024-02-23T03:54:58;7.90;99.90
35894;DHT22;21994;48.204;16.516;2024-02-23T03:57:24;8.00;99.90
35894;DHT22;21994;48.204;16.516;2024-02-23T03:59:54;8.10;99.90
35894;DHT22;21994;48.204;16.516;2024-02-23T04:02:21;8.20;99.90
35894;DHT22;21994;48.204;16.516;2024-02-23T04:04:47;8.30;99.90
35894;DHT22;21994;48.204;16.516;2024-02-23T04:07:13;8.30;99.90
35894;DHT22;21994;48.204;16.516;2024-02-23T04:09:39;8.20;99.90
35894;DHT22;21994;48.204;16.516;2024-02-23T04:12:05;8.10;99.90
35894;DHT22;21994;48.204;16.516;2024-02-23T04:14:33;8.10;99.90
35894;DHT22;21994;48.204;16.516;2024-02-23T04:17:02;8.10;99.90
35894;DHT22;21994;48.204;16.516;2024-02-23T04:19:29;8.20;99.90
35894;DHT22;21994;48.204;16.516;2024-02-23T04:21:54;8.10;99.90
35894;DHT22;21994;48.204;16.516;2024-02-23T04:24:20;8.10;99.90
35894;DHT22;21994;48.204;16.516;2024-02-23T04:26:46;8.10;99.90
35894;DHT22;21994;48.204;16.516;2024-02-23T04:29:12;8.10;99.90
35894;DHT22;21994;48.204;16.516;2024-02-23T04:31:38;8.20;99.90
35894;DHT22;21994;48.204;16.516;2024-02-23T04:34:04;8.20;99.90
35894;DHT22;21994;48.204;16.516;2024-02-23T04:36:30;8.30;99.90
35894;DHT22;21994;48.204;16.516;2024-02-23T04:38:56;8.30;99.90
35894;DHT22;21994;48.204;16.516;2024-02-23T04:41:21;8.40;99.90
35894;DHT22;21994;48.204;16.516;2024-02-23T04:43:47;8.40;99.90
35894;DHT22;21994;48.204;16.516;2024-02-23T04:46:13;8.40;99.90
35894;DHT22;21994;48.204;16.516;2024-02-23T04:48:40;8.40;99.90
35894;DHT22;21994;48.204;16.516;2024-02-23T04:51:07;8.30;99.90
35894;DHT22;21994;48.204;16.516;2024-02-23T04:53:38;8.40;99.90
35894;DHT22;21994;48.204;16.516;2024-02-23T04:56:04;8.40;99.90
35894;DHT22;21994;48.204;16.516;2024-02-23T04:58:30;8.40;99.90
35894;DHT22;21994;48.204;16.516;2024-02-23T05:00:57;8.40;99.90
35894;DHT22;21994;48.204;16.516;2024-02-23T05:03:26;8.40;99.90
35894;DHT22;21994;48.204;16.516;2024-02-23T05:05:52;8.40;99.90
35894;DHT22;21994;48.204;16.516;2024-02-23T05:08:20;8.40;99.90
35894;DHT22;21994;48.204;16.516;2024-02-23T05:10:46;8.40;99.90
35894;DHT22;21994;48.204;16.516;2024-02-23T05:13:18;8.40;99.90
35894;DHT22;21994;48.204;16.516;2024-02-23T05:15:47;8.40;99.90
35894;DHT22;21994;48.204;16.516;2024-02-23T05:18:13;8.40;99.90
35894;DHT22;21994;48.204;16.516;2024-02-23T05:20:38;8.40;99.90
35894;DHT22;21994;48.204;16.516;2024-02-23T05:23:04;8.50;99.90
35894;DHT22;21994;48.204;16.516;2024-02-23T05:25:30;8.50;99.90
35894;DHT22;21994;48.204;16.516;2024-02-23T05:27:56;8.50;99.90
35894;DHT22;21994;48.204;16.516;2024-02-23T05:30:25;8.50;99.90
35894;DHT22;21994;48.204;16.516;2024-02-23T05:32:52;8.50;99.90
35894;DHT22;21994;48.204;16.516;2024-02-23T05:35:18;8.50;99.90
35894;DHT22;21994;48.204;16.516;2024-02-23T05:37:44;8.50;99.90
35894;DHT22;21994;48.204;16.516;2024-02-23T05:40:10;8.50;99.90
35894;DHT22;21994;48.204;16.516;2024-02-23T05:42:36;8.50;99.90
35894;DHT22;21994;48.204;16.516;2024-02-23T05:45:03;8.50;99.90
35894;DHT22;21994;48.204;16.516;2024-02-23T05:47:35;8.60;99.90
35894;DHT22;21994;48.204;16.516;2024-02-23T05:50:05;8.60;99.90
35894;DHT22;21994;48.204;16.516;2024-02-23T05:52:32;8.60;99.90
35894;DHT22;21994;48.204;16.516;2024-02-23T05:54:58;8.60;99.90
35894;DHT22;21994;48.204;16.516;2024-02-23T05:57:26;8.70;99.90
35894;DHT22;21994;48.204;16.516;2024-02-23T05:59:53;8.60;99.90
35894;DHT22;21994;48.204;16.516;2024-02-23T06:02:19;8.70;99.90
35894;DHT22;21994;48.204;16.516;2024-02-23T06:04:45;8.70;99.90
35894;DHT22;21994;48.204;16.516;2024-02-23T06:07:11;8.60;99.90
35894;DHT22;21994;48.204;16.516;2024-02-23T06:09:36;8.70;99.90
35894;DHT22;21994;48.204;16.516;2024-02-23T06:12:02;8.60;99.90
35894;DHT22;21994;48.204;16.516;2024-02-23T06:14:29;8.60;99.90
35894;DHT22;21994;48.204;16.516;2024-02-23T06:16:54;8.60;99.90
35894;DHT22;21994;48.204;16.516;2024-02-23T06:19:21;8.70;99.90
35894;DHT22;21994;48.204;16.516;2024-02-23T06:21:50;8.60;99.90
35894;DHT22;21994;48.204;16.516;2024-02-23T06:24:16;8.70;99.90
35894;DHT22;21994;48.204;16.516;2024-02-23T06:26:42;8.80;99.90
35894;DHT22;21994;48.204;16.516;2024-02-23T06:29:09;8.80;99.90
35894;DHT22;21994;48.204;16.516;2024-02-23T06:31:37;8.90;99.90
35894;DHT22;21994;48.204;16.516;2024-02-23T06:34:04;8.80;99.90
35894;DHT22;21994;48.204;16.516;2024-02-23T06:36:30;9.00;99.90
35894;DHT22;21994;48.204;16.516;2024-02-23T06:38:56;9.00;99.90
35894;DHT22;21994;48.204;16.516;2024-02-23T06:41:22;9.00;99.90
35894;DHT22;21994;48.204;16.516;2024-02-23T06:43:48;9.00;99.90
35894;DHT22;21994;48.204;16.516;2024-02-23T06:46:14;9.00;99.90
35894;DHT22;21994;48.204;16.516;2024-02-23T06:48:40;9.00;99.90
35894;DHT22;21994;48.204;16.516;2024-02-23T06:51:07;9.10;99.90
35894;DHT22;21994;48.204;16.516;2024-02-23T06:53:35;9.00;99.90
35894;DHT22;21994;48.204;16.516;2024-02-23T06:56:01;9.00;99.90
35894;DHT22;21994;48.204;16.516;2024-02-23T06:58:27;9.00;99.90
35894;DHT22;21994;48.204;16.516;2024-02-23T07:00:53;9.00;99.90
35894;DHT22;21994;48.204;16.516;2024-02-23T07:03:19;9.00;99.90
35894;DHT22;21994;48.204;16.516;2024-02-23T07:05:45;9.00;99.90
35894;DHT22;21994;48.204;16.516;2024-02-23T07:08:13;9.00;99.90
35894;DHT22;21994;48.204;16.516;2024-02-23T07:10:38;9.00;99.90
35894;DHT22;21994;48.204;16.516;2024-02-23T07:13:05;9.00;99.90
35894;DHT22;21994;48.204;16.516;2024-02-23T07:15:32;9.10;99.90
35894;DHT22;21994;48.204;16.516;2024-02-23T07:17:59;9.00;99.90
35894;DHT22;21994;48.204;16.516;2024-02-23T07:20:25;9.10;99.90
35894;DHT22;21994;48.204;16.516;2024-02-23T07:22:50;9.20;99.90
35894;DHT22;21994;48.204;16.516;2024-02-23T07:25:20;9.30;99.90
35894;DHT22;21994;48.204;16.516;2024-02-23T07:27:49;9.30;99.90
35894;DHT22;21994;48.204;16.516;2024-02-23T07:30:15;9.30;99.90
35894;DHT22;21994;48.204;16.516;2024-02-23T07:32:44;9.30;99.90
35894;DHT22;21994;48.204;16.516;2024-02-23T07:35:12;9.40;99.90
35894;DHT22;21994;48.204;16.516;2024-02-23T07:37:38;9.40;99.90
35894;DHT22;21994;48.204;16.516;2024-02-23T07:40:04;9.40;99.90
35894;DHT22;21994;48.204;16.516;2024-02-23T07:42:31;9.40;99.90
35894;DHT22;21994;48.204;16.516;2024-02-23T07:44:58;9.40;99.90
35894;DHT22;21994;48.204;16.516;2024-02-23T07:47:24;9.40;99.90
35894;DHT22;21994;48.204;16.516;2024-02-23T07:49:52;9.40;99.90
35894;DHT22;21994;48.204;16.516;2024-02-23T07:52:19;9.40;99.90
35894;DHT22;21994;48.204;16.516;2024-02-23T07:54:45;9.40;99.90
35894;DHT22;21994;48.204;16.516;2024-02-23T07:57:10;9.40;99.90
35894;DHT22;21994;48.204;16.516;2024-02-23T07:59:36;9.40;99.90
35894;DHT22;21994;48.204;16.516;2024-02-23T08:02:02;9.40;99.90
35894;DHT22;21994;48.204;16.516;2024-02-23T08:04:28;9.40;99.90
35894;DHT22;21994;48.204;16.516;2024-02-23T08:06:54;9.40;99.90
35894;DHT22;21994;48.204;16.516;2024-02-23T08:09:20;9.30;99.90
35894;DHT22;21994;48.204;16.516;2024-02-23T08:11:47;9.30;99.90
35894;DHT22;21994;48.204;16.516;2024-02-23T08:14:14;9.20;99.90
35894;DHT22;21994;48.204;16.516;2024-02-23T08:16:40;9.20;99.90
35894;DHT22;21994;48.204;16.516;2024-02-23T08:19:06;9.10;99.90
35894;DHT22;21994;48.204;16.516;2024-02-23T08:21:33;9.10;99.90
35894;DHT22;21994;48.204;16.516;2024-02-23T08:23:59;9.20;99.90
35894;DHT22;21994;48.204;16.516;2024-02-23T08:26:25;9.10;99.90
35894;DHT22;21994;48.204;16.516;2024-02-23T08:28:51;9.10;99.90
35894;DHT22;21994;48.204;16.516;2024-02-23T08:31:16;9.10;99.90
35894;DHT22;21994;48.204;16.516;2024-02-23T08:33:42;9.10;99.90
35894;DHT22;21994;48.204;16.516;2024-02-23T08:36:09;9.20;99.90
35894;DHT22;21994;48.204;16.516;2024-02-23T08:38:36;9.20;99.90
35894;DHT22;21994;48.204;16.516;2024-02-23T08:41:03;9.30;99.90
35894;DHT22;21994;48.204;16.516;2024-02-23T08:43:28;9.30;99.90
35894;DHT22;21994;48.204;16.516;2024-02-23T08:45:54;9.40;99.90
35894;DHT22;21994;48.204;16.516;2024-02-23T08:48:20;9.40;99.90
35894;DHT22;21994;48.204;16.516;2024-02-23T08:50:46;9.50;99.90
35894;DHT22;21994;48.204;16.516;2024-02-23T08:53:12;9.60;99.90
35894;DHT22;21994;48.204;16.516;2024-02-23T08:55:38;9.70;99.90
35894;DHT22;21994;48.204;16.516;2024-02-23T08:58:04;9.70;99.90
35894;DHT22;21994;48.204;16.516;2024-02-23T09:00:31;9.80;99.90
35894;DHT22;21994;48.204;16.516;2024-02-23T09:02:58;9.90;99.90
35894;DHT22;21994;48.204;16.516;2024-02-23T09:05:23;10.00;99.90
35894;DHT22;21994;48.204;16.516;2024-02-23T09:07:49;10.00;99.90
35894;DHT22;21994;48.204;16.516;2024-02-23T09:10:15;10.00;99.90
35894;DHT22;21994;48.204;16.516;2024-02-23T09:12:41;10.00;99.90
35894;DHT22;21994;48.204;16.516;2024-02-23T09:15:07;10.10;99.90
35894;DHT22;21994;48.204;16.516;2024-02-23T09:17:34;10.20;99.90
35894;DHT22;21994;48.204;16.516;2024-02-23T09:20:00;10.20;99.90
35894;DHT22;21994;48.204;16.516;2024-02-23T09:22:26;10.10;99.90
35894;DHT22;21994;48.204;16.516;2024-02-23T09:24:52;10.10;99.90
35894;DHT22;21994;48.204;16.516;2024-02-23T09:27:20;10.20;99.90
35894;DHT22;21994;48.204;16.516;2024-02-23T09:29:46;10.20;99.90
35894;DHT22;21994;48.204;16.516;2024-02-23T09:32:12;10.30;99.90
35894;DHT22;21994;48.204;16.516;2024-02-23T09:34:38;10.30;99.90
35894;DHT22;21994;48.204;16.516;2024-02-23T09:37:04;10.40;99.90
35894;DHT22;21994;48.204;16.516;2024-02-23T09:39:30;10.40;99.90
35894;DHT22;21994;48.204;16.516;2024-02-23T09:41:56;10.50;99.90
35894;DHT22;21994;48.204;16.516;2024-02-23T09:44:34;10.50;99.90
35894;DHT22;21994;48.204;16.516;2024-02-23T09:47:04;10.40;99.90
35894;DHT22;21994;48.204;16.516;2024-02-23T09:49:40;10.40;99.90
35894;DHT22;21994;48.204;16.516;2024-02-23T09:52:10;10.40;99.90
35894;DHT22;21994;48.204;16.516;2024-02-23T09:54:39;10.40;99.90
35894;DHT22;21994;48.204;16.516;2024-02-23T09:57:07;10.50;99.90
35894;DHT22;21994;48.204;16.516;2024-02-23T09:59:37;10.60;99.90
35894;DHT22;21994;48.204;16.516;2024-02-23T10:02:08;10.80;99.90
35894;DHT22;21994;48.204;16.516;2024-02-23T10:04:39;10.80;99.90
35894;DHT22;21994;48.204;16.516;2024-02-23T10:07:06;10.70;99.90
35894;DHT22;21994;48.204;16.516;2024-02-23T10:09:32;10.60;99.90
35894;DHT22;21994;48.204;16.516;2024-02-23T10:11:58;10.50;99.90
35894;DHT22;21994;48.204;16.516;2024-02-23T10:14:24;10.60;99.90
35894;DHT22;21994;48.204;16.516;2024-02-23T10:16:50;10.50;99.90
35894;DHT22;21994;48.204;16.516;2024-02-23T10:19:22;10.60;99.90
35894;DHT22;21994;48.204;16.516;2024-02-23T10:21:54;10.50;99.90
35894;DHT22;21994;48.204;16.516;2024-02-23T10:24:20;10.40;99.90
35894;DHT22;21994;48.204;16.516;2024-02-23T10:26:46;10.60;99.90
35894;DHT22;21994;48.204;16.516;2024-02-23T10:29:12;10.60;99.90
35894;DHT22;21994;48.204;16.516;2024-02-23T10:31:38;10.70;99.90
35894;DHT22;21994;48.204;16.516;2024-02-23T10:34:09;10.60;99.90
35894;DHT22;21994;48.204;16.516;2024-02-23T10:36:41;10.70;99.90
35894;DHT22;21994;48.204;16.516;2024-02-23T10:39:17;10.90;99.90
35894;DHT22;21994;48.204;16.516;2024-02-23T10:41:51;10.70;99.90
35894;DHT22;21994;48.204;16.516;2024-02-23T10:44:28;10.80;99.90
35894;DHT22;21994;48.204;16.516;2024-02-23T10:46:55;10.80;99.90
35894;DHT22;21994;48.204;16.516;2024-02-23T10:49:23;10.80;99.90
35894;DHT22;21994;48.204;16.516;2024-02-23T10:51:53;10.80;99.90
35894;DHT22;21994;48.204;16.516;2024-02-23T10:54:20;10.70;99.90
35894;DHT22;21994;48.204;16.516;2024-02-23T10:56:48;10.70;99.90
35894;DHT22;21994;48.204;16.516;2024-02-23T10:59:17;10.80;99.90
35894;DHT22;21994;48.204;16.516;2024-02-23T11:01:54;10.90;99.90
35894;DHT22;21994;48.204;16.516;2024-02-23T11:04:23;10.90;99.90
35894;DHT22;21994;48.204;16.516;2024-02-23T11:06:53;11.20;99.90
35894;DHT22;21994;48.204;16.516;2024-02-23T11:09:24;11.10;99.90
35894;DHT22;21994;48.204;16.516;2024-02-23T11:11:54;11.40;99.90
35894;DHT22;21994;48.204;16.516;2024-02-23T11:14:50;11.40;99.90
35894;DHT22;21994;48.204;16.516;2024-02-23T11:17:20;11.40;99.90
35894;DHT22;21994;48.204;16.516;2024-02-23T11:19:49;11.40;99.90
35894;DHT22;21994;48.204;16.516;2024-02-23T11:22:30;11.40;99.90
35894;DHT22;21994;48.204;16.516;2024-02-23T11:25:07;11.40;99.90
35894;DHT22;21994;48.204;16.516;2024-02-23T11:27:37;11.30;99.90
35894;DHT22;21994;48.204;16.516;2024-02-23T11:30:09;11.40;99.90
35894;DHT22;21994;48.204;16.516;2024-02-23T11:32:42;11.30;99.90
35894;DHT22;21994;48.204;16.516;2024-02-23T11:35:16;11.40;99.90
35894;DHT22;21994;48.204;16.516;2024-02-23T11:38:03;11.30;99.90
35894;DHT22;21994;48.204;16.516;2024-02-23T11:40:31;11.20;99.90
35894;DHT22;21994;48.204;16.516;2024-02-23T11:42:58;11.10;99.90
35894;DHT22;21994;48.204;16.516;2024-02-23T11:45:31;11.00;99.90
35894;DHT22;21994;48.204;16.516;2024-02-23T11:47:57;10.80;99.90
35894;DHT22;21994;48.204;16.516;2024-02-23T11:50:24;10.80;99.90
35894;DHT22;21994;48.204;16.516;2024-02-23T11:52:50;10.70;99.90
35894;DHT22;21994;48.204;16.516;2024-02-23T11:55:19;10.60;99.90
35894;DHT22;21994;48.204;16.516;2024-02-23T11:57:48;10.50;99.90
35894;DHT22;21994;48.204;16.516;2024-02-23T12:00:15;10.40;99.90
35894;DHT22;21994;48.204;16.516;2024-02-23T12:02:42;10.40;99.90
35894;DHT22;21994;48.204;16.516;2024-02-23T12:05:09;10.30;99.90
35894;DHT22;21994;48.204;16.516;2024-02-23T12:07:35;10.30;99.90
35894;DHT22;21994;48.204;16.516;2024-02-23T12:10:01;10.30;99.90
35894;DHT22;21994;48.204;16.516;2024-02-23T12:12:29;10.30;99.90
35894;DHT22;21994;48.204;16.516;2024-02-23T12:14:55;10.30;99.90
35894;DHT22;21994;48.204;16.516;2024-02-23T12:17:21;10.20;99.90
35894;DHT22;21994;48.204;16.516;2024-02-23T12:19:46;10.20;99.90
35894;DHT22;21994;48.204;16.516;2024-02-23T12:22:12;10.20;99.90
35894;DHT22;21994;48.204;16.516;2024-02-23T12:24:40;10.20;99.90
35894;DHT22;21994;48.204;16.516;2024-02-23T12:27:07;10.20;99.90
35894;DHT22;21994;48.204;16.516;2024-02-23T12:29:33;10.20;99.90
35894;DHT22;21994;48.204;16.516;2024-02-23T12:32:06;10.20;99.90
35894;DHT22;21994;48.204;16.516;2024-02-23T12:34:33;10.10;99.90
35894;DHT22;21994;48.204;16.516;2024-02-23T12:37:02;10.10;99.90
35894;DHT22;21994;48.204;16.516;2024-02-23T12:39:29;10.10;99.90
35894;DHT22;21994;48.204;16.516;2024-02-23T12:41:55;9.90;99.90
35894;DHT22;21994;48.204;16.516;2024-02-23T12:44:22;9.80;99.90
35894;DHT22;21994;48.204;16.516;2024-02-23T12:46:48;9.70;99.90
35894;DHT22;21994;48.204;16.516;2024-02-23T12:49:14;9.60;99.90
35894;DHT22;21994;48.204;16.516;2024-02-23T12:51:41;9.50;99.90
35894;DHT22;21994;48.204;16.516;2024-02-23T12:54:07;9.50;99.90
35894;DHT22;21994;48.204;16.516;2024-02-23T12:56:33;9.50;99.90
35894;DHT22;21994;48.204;16.516;2024-02-23T12:58:59;9.50;99.90
35894;DHT22;21994;48.204;16.516;2024-02-23T13:01:25;9.40;99.90
35894;DHT22;21994;48.204;16.516;2024-02-23T13:03:54;9.50;99.90
35894;DHT22;21994;48.204;16.516;2024-02-23T13:06:20;9.50;99.90
35894;DHT22;21994;48.204;16.516;2024-02-23T13:08:46;9.40;99.90
35894;DHT22;21994;48.204;16.516;2024-02-23T13:11:12;9.30;99.90
35894;DHT22;21994;48.204;16.516;2024-02-23T13:13:37;9.30;99.90
35894;DHT22;21994;48.204;16.516;2024-02-23T13:16:06;9.30;99.90
35894;DHT22;21994;48.204;16.516;2024-02-23T13:18:34;9.30;99.90
35894;DHT22;21994;48.204;16.516;2024-02-23T13:21:00;9.30;99.90
35894;DHT22;21994;48.204;16.516;2024-02-23T13:23:26;9.20;99.90
35894;DHT22;21994;48.204;16.516;2024-02-23T13:25:53;9.30;99.90
35894;DHT22;21994;48.204;16.516;2024-02-23T13:28:18;9.30;99.90
35894;DHT22;21994;48.204;16.516;2024-02-23T13:30:44;9.30;99.90
35894;DHT22;21994;48.204;16.516;2024-02-23T13:33:11;9.30;99.90
35894;DHT22;21994;48.204;16.516;2024-02-23T13:35:41;9.30;99.90
35894;DHT22;21994;48.204;16.516;2024-02-23T13:38:08;9.30;99.90
35894;DHT22;21994;48.204;16.516;2024-02-23T13:40:34;9.20;99.90
35894;DHT22;21994;48.204;16.516;2024-02-23T13:43:00;9.20;99.90
35894;DHT22;21994;48.204;16.516;2024-02-23T13:45:26;9.10;99.90
35894;DHT22;21994;48.204;16.516;2024-02-23T13:48:02;9.20;99.90
35894;DHT22;21994;48.204;16.516;2024-02-23T13:50:29;9.20;99.90
35894;DHT22;21994;48.204;16.516;2024-02-23T13:52:55;9.20;99.90
35894;DHT22;21994;48.204;16.516;2024-02-23T13:55:21;9.20;99.90
35894;DHT22;21994;48.204;16.516;2024-02-23T13:57:48;9.20;99.90
35894;DHT22;21994;48.204;16.516;2024-02-23T14:00:16;9.30;99.90
35894;DHT22;21994;48.204;16.516;2024-02-23T14:02:42;9.30;99.90
35894;DHT22;21994;48.204;16.516;2024-02-23T14:05:10;9.30;99.90
35894;DHT22;21994;48.204;16.516;2024-02-23T14:07:38;9.40;99.90
35894;DHT22;21994;48.204;16.516;2024-02-23T14:10:05;9.40;99.90
35894;DHT22;21994;48.204;16.516;2024-02-23T14:12:32;9.40;99.90
35894;DHT22;21994;48.204;16.516;2024-02-23T14:14:57;9.50;99.90
35894;DHT22;21994;48.204;16.516;2024-02-23T14:17:24;9.60;99.90
35894;DHT22;21994;48.204;16.516;2024-02-23T14:19:50;9.60;99.90
35894;DHT22;21994;48.204;16.516;2024-02-23T14:22:16;9.70;99.90
35894;DHT22;21994;48.204;16.516;2024-02-23T14:24:43;9.70;99.90
35894;DHT22;21994;48.204;16.516;2024-02-23T14:27:09;9.70;99.90
35894;DHT22;21994;48.204;16.516;2024-02-23T14:29:34;9.70;99.90
35894;DHT22;21994;48.204;16.516;2024-02-23T14:32:00;9.70;99.90
35894;DHT22;21994;48.204;16.516;2024-02-23T14:34:26;9.70;99.90
35894;DHT22;21994;48.204;16.516;2024-02-23T14:36:53;9.70;99.90
35894;DHT22;21994;48.204;16.516;2024-02-23T14:39:18;9.80;99.90
35894;DHT22;21994;48.204;16.516;2024-02-23T14:41:44;9.70;99.90
35894;DHT22;21994;48.204;16.516;2024-02-23T14:44:10;9.70;99.90
35894;DHT22;21994;48.204;16.516;2024-02-23T14:46:36;9.70;99.90
35894;DHT22;21994;48.204;16.516;2024-02-23T14:49:02;9.70;99.90
35894;DHT22;21994;48.204;16.516;2024-02-23T14:51:28;9.70;99.90
35894;DHT22;21994;48.204;16.516;2024-02-23T14:53:54;9.70;99.90
35894;DHT22;21994;48.204;16.516;2024-02-23T14:56:21;9.70;99.90
35894;DHT22;21994;48.204;16.516;2024-02-23T14:58:46;9.70;99.90
35894;DHT22;21994;48.204;16.516;2024-02-23T15:01:12;9.70;99.90
35894;DHT22;21994;48.204;16.516;2024-02-23T15:03:38;9.80;99.90
35894;DHT22;21994;48.204;16.516;2024-02-23T15:06:05;9.70;99.90
35894;DHT22;21994;48.204;16.516;2024-02-23T15:08:31;9.80;99.90
35894;DHT22;21994;48.204;16.516;2024-02-23T15:10:57;9.70;99.90
35894;DHT22;21994;48.204;16.516;2024-02-23T15:13:22;9.70;99.90
35894;DHT22;21994;48.204;16.516;2024-02-23T15:15:48;9.80;99.90
35894;DHT22;21994;48.204;16.516;2024-02-23T15:18:14;9.70;99.90
35894;DHT22;21994;48.204;16.516;2024-02-23T15:20:40;9.70;99.90
35894;DHT22;21994;48.204;16.516;2024-02-23T15:23:06;9.80;99.90
35894;DHT22;21994;48.204;16.516;2024-02-23T15:25:32;9.70;99.90